sensor_id;sensor_type;location;lat;lon;timestamp;P1;durP1;ratioP1;P2;durP2;ratioP2
20729;SDS011;10526;50.850;12.928;2024-03-06T00:01:35;73.85;;;37.05;;
20729;SDS011;10526;50.850;12.928;2024-03-06T00:05:57;70.22;;;37.95;;
20729;SDS011;10526;50.850;12.928;2024-03-06T00:10:19;77.28;;;38.30;;
20729;SDS011;10526;50.850;12.928;2024-03-06T00:14:41;65.97;;;34.67;;
20729;SDS011;10526;50.850;12.928;2024-03-06T00:19:03;70.32;;;34.17;;
20729;SDS011;10526;50.850;12.928;2024-03-06T00:23:25;59.20;;;32.63;;
20729;SDS011;10526;50.850;12.928;2024-03-06T00:27:47;70.47;;;36.65;;
20729;SDS011;10526;50.850;12.928;2024-03-06T00:32:09;59.38;;;32.17;;
20729;SDS011;10526;50.850;12.928;2024-03-06T00:36:31;62.42;;;33.80;;
20729;SDS011;10526;50.850;12.928;2024-03-06T00:40:53;63.75;;;33.13;;
20729;SDS011;10526;50.850;12.928;2024-03-06T00:45:15;63.78;;;31.80;;
20729;SDS011;10526;50.850;12.928;2024-03-06T00:49:37;58.40;;;31.63;;
20729;SDS011;10526;50.850;12.928;2024-03-06T00:54:00;59.50;;;31.75;;
20729;SDS011;10526;50.850;12.928;2024-03-06T00:58:22;61.40;;;32.90;;
20729;SDS011;10526;50.850;12.928;2024-03-06T01:02:44;61.80;;;31.73;;
20729;SDS011;10526;50.850;12.928;2024-03-06T01:07:06;63.13;;;30.33;;
20729;SDS011;10526;50.850;12.928;2024-03-06T01:11:28;59.97;;;32.35;;
20729;SDS011;10526;50.850;12.928;2024-03-06T01:15:50;54.55;;;29.95;;
20729;SDS011;10526;50.850;12.928;2024-03-06T01:20:13;55.03;;;29.15;;
20729;SDS011;10526;50.850;12.928;2024-03-06T01:24:35;57.40;;;30.90;;
20729;SDS011;10526;50.850;12.928;2024-03-06T01:28:57;56.47;;;28.40;;
20729;SDS011;10526;50.850;12.928;2024-03-06T01:33:19;52.67;;;30.48;;
20729;SDS011;10526;50.850;12.928;2024-03-06T01:37:41;53.00;;;28.25;;
20729;SDS011;10526;50.850;12.928;2024-03-06T01:42:03;58.08;;;29.63;;
20729;SDS011;10526;50.850;12.928;2024-03-06T01:46:25;49.92;;;27.58;;
20729;SDS011;10526;50.850;12.928;2024-03-06T01:50:47;53.83;;;28.80;;
20729;SDS011;10526;50.850;12.928;2024-03-06T01:55:09;50.15;;;27.20;;
20729;SDS011;10526;50.850;12.928;2024-03-06T01:59:31;55.30;;;29.73;;
20729;SDS011;10526;50.850;12.928;2024-03-06T02:03:57;52.58;;;26.85;;
20729;SDS011;10526;50.850;12.928;2024-03-06T02:08:20;53.15;;;26.90;;
20729;SDS011;10526;50.850;12.928;2024-03-06T02:12:42;50.58;;;26.33;;
20729;SDS011;10526;50.850;12.928;2024-03-06T02:17:04;52.20;;;28.02;;
20729;SDS011;10526;50.850;12.928;2024-03-06T02:21:26;50.78;;;27.30;;
20729;SDS011;10526;50.850;12.928;2024-03-06T02:25:49;52.97;;;26.38;;
20729;SDS011;10526;50.850;12.928;2024-03-06T02:30:11;49.35;;;25.95;;
20729;SDS011;10526;50.850;12.928;2024-03-06T02:34:34;48.08;;;24.38;;
20729;SDS011;10526;50.850;12.928;2024-03-06T02:38:56;50.67;;;25.58;;
20729;SDS011;10526;50.850;12.928;2024-03-06T02:43:18;47.83;;;25.42;;
20729;SDS011;10526;50.850;12.928;2024-03-06T02:47:40;46.35;;;24.98;;
20729;SDS011;10526;50.850;12.928;2024-03-06T02:52:02;52.47;;;26.40;;
20729;SDS011;10526;50.850;12.928;2024-03-06T02:56:24;47.25;;;25.42;;
20729;SDS011;10526;50.850;12.928;2024-03-06T03:00:46;53.58;;;27.48;;
20729;SDS011;10526;50.850;12.928;2024-03-06T03:05:09;54.17;;;27.02;;
20729;SDS011;10526;50.850;12.928;2024-03-06T03:09:31;49.42;;;27.20;;
20729;SDS011;10526;50.850;12.928;2024-03-06T03:13:53;46.42;;;25.88;;
20729;SDS011;10526;50.850;12.928;2024-03-06T03:18:15;45.00;;;24.77;;
20729;SDS011;10526;50.850;12.928;2024-03-06T03:22:37;52.65;;;26.85;;
20729;SDS011;10526;50.850;12.928;2024-03-06T03:27:02;60.78;;;30.20;;
20729;SDS011;10526;50.850;12.928;2024-03-06T03:31:24;46.88;;;25.50;;
20729;SDS011;10526;50.850;12.928;2024-03-06T03:35:46;51.80;;;26.58;;
20729;SDS011;10526;50.850;12.928;2024-03-06T03:40:08;52.53;;;26.17;;
20729;SDS011;10526;50.850;12.928;2024-03-06T03:44:33;58.80;;;31.85;;
20729;SDS011;10526;50.850;12.928;2024-03-06T03:48:54;56.72;;;26.92;;
20729;SDS011;10526;50.850;12.928;2024-03-06T03:53:16;54.63;;;27.90;;
20729;SDS011;10526;50.850;12.928;2024-03-06T03:57:38;53.33;;;28.77;;
20729;SDS011;10526;50.850;12.928;2024-03-06T04:02:00;56.13;;;29.90;;
20729;SDS011;10526;50.850;12.928;2024-03-06T04:06:22;62.03;;;30.48;;
20729;SDS011;10526;50.850;12.928;2024-03-06T04:10:45;59.55;;;29.92;;
20729;SDS011;10526;50.850;12.928;2024-03-06T04:15:07;64.80;;;33.35;;
20729;SDS011;10526;50.850;12.928;2024-03-06T04:19:30;55.58;;;29.70;;
20729;SDS011;10526;50.850;12.928;2024-03-06T04:23:52;55.13;;;29.23;;
20729;SDS011;10526;50.850;12.928;2024-03-06T04:28:15;59.78;;;30.13;;
20729;SDS011;10526;50.850;12.928;2024-03-06T04:32:36;62.17;;;30.20;;
20729;SDS011;10526;50.850;12.928;2024-03-06T04:36:59;58.35;;;32.55;;
20729;SDS011;10526;50.850;12.928;2024-03-06T04:41:22;65.03;;;33.70;;
20729;SDS011;10526;50.850;12.928;2024-03-06T04:45:44;65.15;;;34.92;;
20729;SDS011;10526;50.850;12.928;2024-03-06T04:50:10;57.88;;;31.33;;
20729;SDS011;10526;50.850;12.928;2024-03-06T04:54:34;63.55;;;29.73;;
20729;SDS011;10526;50.850;12.928;2024-03-06T04:58:56;59.05;;;31.45;;
20729;SDS011;10526;50.850;12.928;2024-03-06T05:03:23;64.70;;;30.92;;
20729;SDS011;10526;50.850;12.928;2024-03-06T05:08:03;67.53;;;34.40;;
20729;SDS011;10526;50.850;12.928;2024-03-06T05:12:43;71.20;;;35.10;;
20729;SDS011;10526;50.850;12.928;2024-03-06T05:17:22;67.97;;;35.17;;
20729;SDS011;10526;50.850;12.928;2024-03-06T05:22:02;68.50;;;32.97;;
20729;SDS011;10526;50.850;12.928;2024-03-06T05:26:42;64.90;;;33.17;;
20729;SDS011;10526;50.850;12.928;2024-03-06T05:31:21;64.80;;;35.03;;
20729;SDS011;10526;50.850;12.928;2024-03-06T05:36:02;67.15;;;34.20;;
20729;SDS011;10526;50.850;12.928;2024-03-06T05:40:43;63.53;;;32.28;;
20729;SDS011;10526;50.850;12.928;2024-03-06T05:45:24;66.75;;;34.10;;
20729;SDS011;10526;50.850;12.928;2024-03-06T05:50:07;62.42;;;33.45;;
20729;SDS011;10526;50.850;12.928;2024-03-06T05:54:49;59.72;;;33.00;;
20729;SDS011;10526;50.850;12.928;2024-03-06T05:59:29;65.05;;;32.58;;
20729;SDS011;10526;50.850;12.928;2024-03-06T06:03:51;69.47;;;33.70;;
20729;SDS011;10526;50.850;12.928;2024-03-06T06:08:13;63.58;;;31.92;;
20729;SDS011;10526;50.850;12.928;2024-03-06T06:12:35;62.72;;;32.90;;
20729;SDS011;10526;50.850;12.928;2024-03-06T06:16:57;72.70;;;34.03;;
20729;SDS011;10526;50.850;12.928;2024-03-06T06:21:20;66.10;;;32.35;;
20729;SDS011;10526;50.850;12.928;2024-03-06T06:25:42;64.18;;;32.70;;
20729;SDS011;10526;50.850;12.928;2024-03-06T06:30:04;59.75;;;32.60;;
20729;SDS011;10526;50.850;12.928;2024-03-06T06:34:28;68.97;;;31.25;;
20729;SDS011;10526;50.850;12.928;2024-03-06T06:38:50;58.38;;;32.72;;
20729;SDS011;10526;50.850;12.928;2024-03-06T06:43:13;62.60;;;31.23;;
20729;SDS011;10526;50.850;12.928;2024-03-06T06:47:36;56.92;;;30.65;;
20729;SDS011;10526;50.850;12.928;2024-03-06T06:51:58;64.30;;;30.42;;
20729;SDS011;10526;50.850;12.928;2024-03-06T06:56:20;59.92;;;28.42;;
20729;SDS011;10526;50.850;12.928;2024-03-06T07:00:45;57.58;;;28.55;;
20729;SDS011;10526;50.850;12.928;2024-03-06T07:05:07;51.05;;;28.08;;
20729;SDS011;10526;50.850;12.928;2024-03-06T07:09:30;58.13;;;29.52;;
20729;SDS011;10526;50.850;12.928;2024-03-06T07:13:53;48.38;;;27.77;;
20729;SDS011;10526;50.850;12.928;2024-03-06T07:18:15;46.72;;;26.42;;
20729;SDS011;10526;50.850;12.928;2024-03-06T07:22:37;50.10;;;26.45;;
20729;SDS011;10526;50.850;12.928;2024-03-06T07:26:59;47.63;;;25.77;;
20729;SDS011;10526;50.850;12.928;2024-03-06T07:31:22;49.90;;;25.17;;
20729;SDS011;10526;50.850;12.928;2024-03-06T07:35:44;49.42;;;25.85;;
20729;SDS011;10526;50.850;12.928;2024-03-06T07:40:07;47.13;;;25.02;;
20729;SDS011;10526;50.850;12.928;2024-03-06T07:44:30;43.33;;;23.92;;
20729;SDS011;10526;50.850;12.928;2024-03-06T07:48:52;46.58;;;24.70;;
20729;SDS011;10526;50.850;12.928;2024-03-06T07:53:14;47.20;;;25.63;;
20729;SDS011;10526;50.850;12.928;2024-03-06T07:57:37;47.22;;;22.20;;
20729;SDS011;10526;50.850;12.928;2024-03-06T08:01:59;41.65;;;21.95;;
20729;SDS011;10526;50.850;12.928;2024-03-06T08:06:22;36.40;;;20.65;;
20729;SDS011;10526;50.850;12.928;2024-03-06T08:10:44;37.25;;;20.42;;
20729;SDS011;10526;50.850;12.928;2024-03-06T08:15:06;30.92;;;17.75;;
20729;SDS011;10526;50.850;12.928;2024-03-06T08:19:32;32.42;;;19.67;;
20729;SDS011;10526;50.850;12.928;2024-03-06T08:23:55;37.15;;;20.42;;
20729;SDS011;10526;50.850;12.928;2024-03-06T08:28:17;31.50;;;18.95;;
20729;SDS011;10526;50.850;12.928;2024-03-06T08:32:39;35.58;;;20.83;;
20729;SDS011;10526;50.850;12.928;2024-03-06T08:37:01;34.08;;;19.38;;
20729;SDS011;10526;50.850;12.928;2024-03-06T08:41:23;32.75;;;21.25;;
20729;SDS011;10526;50.850;12.928;2024-03-06T08:45:45;35.25;;;20.63;;
20729;SDS011;10526;50.850;12.928;2024-03-06T08:50:07;33.33;;;22.13;;
20729;SDS011;10526;50.850;12.928;2024-03-06T08:54:30;34.85;;;22.15;;
20729;SDS011;10526;50.850;12.928;2024-03-06T08:58:53;38.63;;;22.25;;
20729;SDS011;10526;50.850;12.928;2024-03-06T09:03:15;33.88;;;21.90;;
20729;SDS011;10526;50.850;12.928;2024-03-06T09:07:37;36.20;;;21.48;;
20729;SDS011;10526;50.850;12.928;2024-03-06T09:12:11;35.50;;;20.00;;
20729;SDS011;10526;50.850;12.928;2024-03-06T09:16:33;36.63;;;21.45;;
20729;SDS011;10526;50.850;12.928;2024-03-06T09:20:55;35.45;;;21.27;;
20729;SDS011;10526;50.850;12.928;2024-03-06T09:25:17;36.15;;;20.10;;
20729;SDS011;10526;50.850;12.928;2024-03-06T09:29:39;32.28;;;19.92;;
20729;SDS011;10526;50.850;12.928;2024-03-06T09:34:02;34.25;;;20.52;;
20729;SDS011;10526;50.850;12.928;2024-03-06T09:38:24;36.60;;;22.20;;
20729;SDS011;10526;50.850;12.928;2024-03-06T09:42:46;36.42;;;21.13;;
20729;SDS011;10526;50.850;12.928;2024-03-06T09:47:12;33.15;;;22.30;;
20729;SDS011;10526;50.850;12.928;2024-03-06T09:51:36;32.05;;;20.23;;
20729;SDS011;10526;50.850;12.928;2024-03-06T09:56:02;31.38;;;20.27;;
20729;SDS011;10526;50.850;12.928;2024-03-06T10:00:24;35.80;;;21.52;;
20729;SDS011;10526;50.850;12.928;2024-03-06T10:04:47;32.13;;;20.50;;
20729;SDS011;10526;50.850;12.928;2024-03-06T10:09:09;35.75;;;20.65;;
20729;SDS011;10526;50.850;12.928;2024-03-06T10:13:31;36.05;;;20.88;;
20729;SDS011;10526;50.850;12.928;2024-03-06T10:18:00;31.92;;;19.83;;
20729;SDS011;10526;50.850;12.928;2024-03-06T10:22:36;35.83;;;19.23;;
20729;SDS011;10526;50.850;12.928;2024-03-06T10:26:59;31.30;;;19.45;;
20729;SDS011;10526;50.850;12.928;2024-03-06T10:31:27;30.75;;;18.38;;
20729;SDS011;10526;50.850;12.928;2024-03-06T10:35:49;33.67;;;17.23;;
20729;SDS011;10526;50.850;12.928;2024-03-06T10:40:14;31.77;;;18.52;;
20729;SDS011;10526;50.850;12.928;2024-03-06T10:44:38;31.52;;;17.60;;
20729;SDS011;10526;50.850;12.928;2024-03-06T10:49:13;32.25;;;18.20;;
20729;SDS011;10526;50.850;12.928;2024-03-06T10:53:35;32.95;;;17.75;;
20729;SDS011;10526;50.850;12.928;2024-03-06T10:57:59;32.08;;;17.67;;
20729;SDS011;10526;50.850;12.928;2024-03-06T11:02:21;32.05;;;19.40;;
20729;SDS011;10526;50.850;12.928;2024-03-06T11:06:45;36.90;;;18.52;;
20729;SDS011;10526;50.850;12.928;2024-03-06T11:11:20;31.83;;;18.73;;
20729;SDS011;10526;50.850;12.928;2024-03-06T11:15:44;28.95;;;15.10;;
20729;SDS011;10526;50.850;12.928;2024-03-06T11:24:37;29.13;;;18.48;;
20729;SDS011;10526;50.850;12.928;2024-03-06T11:29:00;28.27;;;15.38;;
20729;SDS011;10526;50.850;12.928;2024-03-06T11:33:23;32.70;;;17.23;;
20729;SDS011;10526;50.850;12.928;2024-03-06T11:37:46;31.70;;;18.17;;
20729;SDS011;10526;50.850;12.928;2024-03-06T11:42:08;30.67;;;18.05;;
20729;SDS011;10526;50.850;12.928;2024-03-06T11:46:40;36.13;;;21.15;;
20729;SDS011;10526;50.850;12.928;2024-03-06T11:51:03;35.05;;;20.60;;
20729;SDS011;10526;50.850;12.928;2024-03-06T11:55:28;32.70;;;19.95;;
20729;SDS011;10526;50.850;12.928;2024-03-06T11:59:52;38.35;;;23.52;;
20729;SDS011;10526;50.850;12.928;2024-03-06T12:04:14;39.60;;;23.10;;
20729;SDS011;10526;50.850;12.928;2024-03-06T12:08:36;41.08;;;23.10;;
20729;SDS011;10526;50.850;12.928;2024-03-06T12:13:00;40.13;;;23.35;;
20729;SDS011;10526;50.850;12.928;2024-03-06T12:17:24;43.58;;;21.83;;
20729;SDS011;10526;50.850;12.928;2024-03-06T12:21:47;38.00;;;20.70;;
20729;SDS011;10526;50.850;12.928;2024-03-06T12:26:10;35.45;;;19.88;;
20729;SDS011;10526;50.850;12.928;2024-03-06T12:30:38;31.08;;;17.15;;
20729;SDS011;10526;50.850;12.928;2024-03-06T12:35:05;36.40;;;18.75;;
20729;SDS011;10526;50.850;12.928;2024-03-06T12:39:28;35.45;;;19.52;;
20729;SDS011;10526;50.850;12.928;2024-03-06T12:43:54;35.33;;;18.40;;
20729;SDS011;10526;50.850;12.928;2024-03-06T12:48:17;35.40;;;17.80;;
20729;SDS011;10526;50.850;12.928;2024-03-06T12:52:39;38.78;;;18.73;;
20729;SDS011;10526;50.850;12.928;2024-03-06T12:57:01;32.38;;;16.15;;
20729;SDS011;10526;50.850;12.928;2024-03-06T13:01:23;34.08;;;16.65;;
20729;SDS011;10526;50.850;12.928;2024-03-06T13:05:45;31.67;;;15.80;;
20729;SDS011;10526;50.850;12.928;2024-03-06T13:10:07;29.13;;;13.25;;
20729;SDS011;10526;50.850;12.928;2024-03-06T13:14:31;36.60;;;15.40;;
20729;SDS011;10526;50.850;12.928;2024-03-06T13:18:54;31.45;;;14.10;;
20729;SDS011;10526;50.850;12.928;2024-03-06T13:23:17;30.25;;;14.63;;
20729;SDS011;10526;50.850;12.928;2024-03-06T13:27:39;32.28;;;15.63;;
20729;SDS011;10526;50.850;12.928;2024-03-06T13:32:01;39.72;;;19.30;;
20729;SDS011;10526;50.850;12.928;2024-03-06T13:36:23;39.15;;;18.08;;
20729;SDS011;10526;50.850;12.928;2024-03-06T13:40:45;29.08;;;15.93;;
20729;SDS011;10526;50.850;12.928;2024-03-06T13:45:08;43.00;;;21.60;;
20729;SDS011;10526;50.850;12.928;2024-03-06T13:54:02;39.47;;;21.52;;
20729;SDS011;10526;50.850;12.928;2024-03-06T13:58:24;38.33;;;21.23;;
20729;SDS011;10526;50.850;12.928;2024-03-06T14:02:47;45.13;;;24.65;;
20729;SDS011;10526;50.850;12.928;2024-03-06T14:07:09;43.08;;;24.25;;
20729;SDS011;10526;50.850;12.928;2024-03-06T14:11:31;42.70;;;23.80;;
20729;SDS011;10526;50.850;12.928;2024-03-06T14:15:55;42.35;;;25.00;;
20729;SDS011;10526;50.850;12.928;2024-03-06T14:20:22;41.53;;;21.52;;
20729;SDS011;10526;50.850;12.928;2024-03-06T14:24:45;42.65;;;22.67;;
20729;SDS011;10526;50.850;12.928;2024-03-06T14:29:07;38.50;;;20.15;;
20729;SDS011;10526;50.850;12.928;2024-03-06T14:33:30;38.58;;;20.40;;
20729;SDS011;10526;50.850;12.928;2024-03-06T14:37:52;40.45;;;21.70;;
20729;SDS011;10526;50.850;12.928;2024-03-06T14:42:14;41.35;;;19.83;;
20729;SDS011;10526;50.850;12.928;2024-03-06T14:46:36;34.83;;;19.73;;
20729;SDS011;10526;50.850;12.928;2024-03-06T14:50:58;37.72;;;20.73;;
20729;SDS011;10526;50.850;12.928;2024-03-06T14:55:20;36.50;;;18.38;;
20729;SDS011;10526;50.850;12.928;2024-03-06T14:59:42;34.35;;;18.88;;
20729;SDS011;10526;50.850;12.928;2024-03-06T15:04:05;32.63;;;17.20;;
20729;SDS011;10526;50.850;12.928;2024-03-06T15:08:27;40.90;;;18.83;;
20729;SDS011;10526;50.850;12.928;2024-03-06T15:12:50;35.15;;;19.42;;
20729;SDS011;10526;50.850;12.928;2024-03-06T15:17:14;36.08;;;18.02;;
20729;SDS011;10526;50.850;12.928;2024-03-06T15:21:36;32.60;;;17.77;;
20729;SDS011;10526;50.850;12.928;2024-03-06T15:25:58;36.20;;;19.05;;
20729;SDS011;10526;50.850;12.928;2024-03-06T15:30:20;39.03;;;18.05;;
20729;SDS011;10526;50.850;12.928;2024-03-06T15:34:42;36.17;;;17.67;;
20729;SDS011;10526;50.850;12.928;2024-03-06T15:39:04;37.03;;;18.10;;
20729;SDS011;10526;50.850;12.928;2024-03-06T15:43:28;32.08;;;17.77;;
20729;SDS011;10526;50.850;12.928;2024-03-06T15:47:50;32.65;;;17.05;;
20729;SDS011;10526;50.850;12.928;2024-03-06T15:52:13;30.77;;;16.52;;
20729;SDS011;10526;50.850;12.928;2024-03-06T15:56:35;33.95;;;16.15;;
20729;SDS011;10526;50.850;12.928;2024-03-06T16:00:57;30.60;;;15.60;;
20729;SDS011;10526;50.850;12.928;2024-03-06T16:05:23;30.73;;;16.40;;
20729;SDS011;10526;50.850;12.928;2024-03-06T16:09:46;33.67;;;16.83;;
20729;SDS011;10526;50.850;12.928;2024-03-06T16:14:11;33.83;;;18.52;;
20729;SDS011;10526;50.850;12.928;2024-03-06T16:18:33;32.17;;;17.90;;
20729;SDS011;10526;50.850;12.928;2024-03-06T16:22:57;34.70;;;17.15;;
20729;SDS011;10526;50.850;12.928;2024-03-06T16:27:19;35.70;;;17.45;;
20729;SDS011;10526;50.850;12.928;2024-03-06T16:31:41;31.80;;;16.92;;
20729;SDS011;10526;50.850;12.928;2024-03-06T16:36:03;37.88;;;18.00;;
20729;SDS011;10526;50.850;12.928;2024-03-06T16:40:29;51.63;;;25.73;;
20729;SDS011;10526;50.850;12.928;2024-03-06T16:44:51;33.90;;;15.70;;
20729;SDS011;10526;50.850;12.928;2024-03-06T16:49:13;25.52;;;12.57;;
20729;SDS011;10526;50.850;12.928;2024-03-06T16:53:35;31.23;;;14.52;;
20729;SDS011;10526;50.850;12.928;2024-03-06T16:58:00;25.33;;;13.52;;
20729;SDS011;10526;50.850;12.928;2024-03-06T17:02:22;24.30;;;11.25;;
20729;SDS011;10526;50.850;12.928;2024-03-06T17:06:44;23.90;;;10.88;;
20729;SDS011;10526;50.850;12.928;2024-03-06T17:11:10;23.88;;;10.55;;
20729;SDS011;10526;50.850;12.928;2024-03-06T17:15:33;23.88;;;10.07;;
20729;SDS011;10526;50.850;12.928;2024-03-06T17:19:54;19.33;;;9.68;;
20729;SDS011;10526;50.850;12.928;2024-03-06T17:24:16;17.35;;;8.43;;
20729;SDS011;10526;50.850;12.928;2024-03-06T17:28:39;17.50;;;8.35;;
20729;SDS011;10526;50.850;12.928;2024-03-06T17:33:01;17.48;;;8.13;;
20729;SDS011;10526;50.850;12.928;2024-03-06T17:37:24;18.10;;;8.48;;
20729;SDS011;10526;50.850;12.928;2024-03-06T17:41:47;17.30;;;8.70;;
20729;SDS011;10526;50.850;12.928;2024-03-06T17:46:09;21.30;;;9.52;;
20729;SDS011;10526;50.850;12.928;2024-03-06T17:50:31;19.63;;;8.70;;
20729;SDS011;10526;50.850;12.928;2024-03-06T17:54:55;17.85;;;8.27;;
20729;SDS011;10526;50.850;12.928;2024-03-06T17:59:18;17.95;;;8.05;;
20729;SDS011;10526;50.850;12.928;2024-03-06T18:03:40;18.10;;;8.80;;
20729;SDS011;10526;50.850;12.928;2024-03-06T18:08:05;19.80;;;9.73;;
20729;SDS011;10526;50.850;12.928;2024-03-06T18:12:27;18.45;;;8.73;;
20729;SDS011;10526;50.850;12.928;2024-03-06T18:16:49;21.52;;;9.93;;
20729;SDS011;10526;50.850;12.928;2024-03-06T18:21:11;21.42;;;9.23;;
20729;SDS011;10526;50.850;12.928;2024-03-06T18:25:34;20.60;;;10.02;;
20729;SDS011;10526;50.850;12.928;2024-03-06T18:29:56;21.83;;;10.15;;
20729;SDS011;10526;50.850;12.928;2024-03-06T18:34:18;27.02;;;10.52;;
20729;SDS011;10526;50.850;12.928;2024-03-06T18:38:40;22.48;;;9.70;;
20729;SDS011;10526;50.850;12.928;2024-03-06T18:43:05;20.80;;;9.35;;
20729;SDS011;10526;50.850;12.928;2024-03-06T18:47:27;24.88;;;10.70;;
20729;SDS011;10526;50.850;12.928;2024-03-06T18:51:50;22.05;;;9.30;;
20729;SDS011;10526;50.850;12.928;2024-03-06T18:56:12;20.73;;;8.88;;
20729;SDS011;10526;50.850;12.928;2024-03-06T19:00:34;19.92;;;9.32;;
20729;SDS011;10526;50.850;12.928;2024-03-06T19:04:56;20.98;;;9.93;;
20729;SDS011;10526;50.850;12.928;2024-03-06T19:09:18;20.15;;;10.32;;
20729;SDS011;10526;50.850;12.928;2024-03-06T19:13:40;21.23;;;9.50;;
20729;SDS011;10526;50.850;12.928;2024-03-06T19:18:02;19.42;;;9.50;;
20729;SDS011;10526;50.850;12.928;2024-03-06T19:22:26;18.23;;;8.98;;
20729;SDS011;10526;50.850;12.928;2024-03-06T19:26:48;21.05;;;9.63;;
20729;SDS011;10526;50.850;12.928;2024-03-06T19:31:11;22.15;;;9.43;;
20729;SDS011;10526;50.850;12.928;2024-03-06T19:35:33;20.83;;;10.07;;
20729;SDS011;10526;50.850;12.928;2024-03-06T19:39:55;21.42;;;9.80;;
20729;SDS011;10526;50.850;12.928;2024-03-06T19:44:17;19.80;;;9.85;;
20729;SDS011;10526;50.850;12.928;2024-03-06T19:48:41;23.27;;;9.93;;
20729;SDS011;10526;50.850;12.928;2024-03-06T19:53:03;20.38;;;11.02;;
20729;SDS011;10526;50.850;12.928;2024-03-06T19:57:25;19.02;;;9.98;;
20729;SDS011;10526;50.850;12.928;2024-03-06T20:01:47;22.98;;;10.60;;
20729;SDS011;10526;50.850;12.928;2024-03-06T20:06:09;24.60;;;11.18;;
20729;SDS011;10526;50.850;12.928;2024-03-06T20:10:31;24.88;;;11.00;;
20729;SDS011;10526;50.850;12.928;2024-03-06T20:14:53;23.88;;;11.10;;
20729;SDS011;10526;50.850;12.928;2024-03-06T20:19:15;27.20;;;10.98;;
20729;SDS011;10526;50.850;12.928;2024-03-06T20:23:40;20.40;;;10.57;;
20729;SDS011;10526;50.850;12.928;2024-03-06T20:28:02;24.25;;;11.05;;
20729;SDS011;10526;50.850;12.928;2024-03-06T20:32:26;23.20;;;11.40;;
20729;SDS011;10526;50.850;12.928;2024-03-06T20:36:51;24.23;;;12.07;;
20729;SDS011;10526;50.850;12.928;2024-03-06T20:41:13;26.10;;;11.63;;
20729;SDS011;10526;50.850;12.928;2024-03-06T20:45:35;23.90;;;10.75;;
20729;SDS011;10526;50.850;12.928;2024-03-06T20:50:00;24.30;;;10.70;;
20729;SDS011;10526;50.850;12.928;2024-03-06T20:54:22;23.27;;;10.90;;
20729;SDS011;10526;50.850;12.928;2024-03-06T20:58:43;27.63;;;11.10;;
20729;SDS011;10526;50.850;12.928;2024-03-06T21:03:06;24.25;;;11.43;;
20729;SDS011;10526;50.850;12.928;2024-03-06T21:07:29;24.33;;;11.13;;
20729;SDS011;10526;50.850;12.928;2024-03-06T21:11:52;21.13;;;10.73;;
20729;SDS011;10526;50.850;12.928;2024-03-06T21:16:15;25.55;;;10.93;;
20729;SDS011;10526;50.850;12.928;2024-03-06T21:20:37;25.73;;;11.75;;
20729;SDS011;10526;50.850;12.928;2024-03-06T21:24:59;24.08;;;10.63;;
20729;SDS011;10526;50.850;12.928;2024-03-06T21:29:21;28.15;;;13.88;;
20729;SDS011;10526;50.850;12.928;2024-03-06T21:33:43;24.27;;;11.77;;
20729;SDS011;10526;50.850;12.928;2024-03-06T21:38:05;25.23;;;11.85;;
20729;SDS011;10526;50.850;12.928;2024-03-06T21:42:27;25.08;;;12.27;;
20729;SDS011;10526;50.850;12.928;2024-03-06T21:46:49;26.85;;;12.68;;
20729;SDS011;10526;50.850;12.928;2024-03-06T21:51:11;25.23;;;12.15;;
20729;SDS011;10526;50.850;12.928;2024-03-06T21:55:33;32.10;;;14.77;;
20729;SDS011;10526;50.850;12.928;2024-03-06T21:59:55;27.67;;;13.45;;
20729;SDS011;10526;50.850;12.928;2024-03-06T22:04:18;25.73;;;13.07;;
20729;SDS011;10526;50.850;12.928;2024-03-06T22:08:40;29.50;;;13.35;;
20729;SDS011;10526;50.850;12.928;2024-03-06T22:13:03;27.27;;;13.18;;
20729;SDS011;10526;50.850;12.928;2024-03-06T22:17:25;28.17;;;14.25;;
20729;SDS011;10526;50.850;12.928;2024-03-06T22:21:50;25.15;;;13.27;;
20729;SDS011;10526;50.850;12.928;2024-03-06T22:26:12;29.35;;;14.05;;
20729;SDS011;10526;50.850;12.928;2024-03-06T22:30:34;34.70;;;14.18;;
20729;SDS011;10526;50.850;12.928;2024-03-06T22:34:56;26.02;;;13.30;;
20729;SDS011;10526;50.850;12.928;2024-03-06T22:39:18;29.20;;;14.43;;
20729;SDS011;10526;50.850;12.928;2024-03-06T22:43:40;30.23;;;14.73;;
20729;SDS011;10526;50.850;12.928;2024-03-06T22:48:02;30.13;;;14.80;;
20729;SDS011;10526;50.850;12.928;2024-03-06T22:52:24;29.98;;;15.13;;
20729;SDS011;10526;50.850;12.928;2024-03-06T22:56:46;26.48;;;13.90;;
20729;SDS011;10526;50.850;12.928;2024-03-06T23:01:09;32.83;;;15.77;;
20729;SDS011;10526;50.850;12.928;2024-03-06T23:05:32;32.25;;;16.13;;
20729;SDS011;10526;50.850;12.928;2024-03-06T23:09:54;30.08;;;14.55;;
20729;SDS011;10526;50.850;12.928;2024-03-06T23:14:16;29.52;;;14.77;;
20729;SDS011;10526;50.850;12.928;2024-03-06T23:18:38;29.38;;;14.20;;
20729;SDS011;10526;50.850;12.928;2024-03-06T23:23:01;28.33;;;15.43;;
20729;SDS011;10526;50.850;12.928;2024-03-06T23:27:23;31.13;;;15.80;;
20729;SDS011;10526;50.850;12.928;2024-03-06T23:31:45;32.03;;;15.55;;
20729;SDS011;10526;50.850;12.928;2024-03-06T23:36:08;29.75;;;15.15;;
20729;SDS011;10526;50.850;12.928;2024-03-06T23:40:30;28.58;;;14.65;;
20729;SDS011;10526;50.850;12.928;2024-03-06T23:44:52;31.58;;;15.68;;
20729;SDS011;10526;50.850;12.928;2024-03-06T23:49:14;29.38;;;16.00;;
20729;SDS011;10526;50.850;12.928;2024-03-06T23:53:36;32.25;;;15.70;;
20729;SDS011;10526;50.850;12.928;2024-03-06T23:57:58;32.70;;;16.90;;
